createdAt,value
2019-03-31T00:00:00.616Z,12.30
2019-03-31T00:01:08.003Z,15.50
2019-03-31T00:02:00.807Z,13.00
2019-03-31T00:03:00.887Z,12.80
2019-03-31T00:04:00.975Z,14.50
2019-03-31T00:05:01.064Z,13.20
2019-03-31T00:06:01.154Z,15.40
2019-03-31T00:07:01.245Z,15.30
2019-03-31T00:08:01.336Z,13.70
2019-03-31T00:09:01.424Z,12.90
2019-03-31T00:10:01.514Z,15.50
2019-03-31T00:11:01.607Z,14.50
2019-03-31T00:12:01.695Z,15.20
2019-03-31T00:13:01.784Z,15.20
2019-03-31T00:14:01.874Z,14.50
2019-03-31T00:15:01.964Z,14.60
2019-03-31T00:16:02.082Z,14.90
2019-03-31T00:17:02.143Z,12.40
2019-03-31T00:18:02.234Z,14.30
2019-03-31T00:19:02.324Z,13.90
2019-03-31T00:20:02.411Z,14.00
2019-03-31T00:21:02.502Z,13.60
2019-03-31T00:22:02.595Z,14.30
2019-03-31T00:23:02.715Z,13.00
2019-03-31T00:24:02.755Z,13.20
2019-03-31T00:25:02.847Z,13.20
2019-03-31T00:26:02.933Z,14.70
2019-03-31T00:27:03.028Z,14.80
2019-03-31T00:28:03.113Z,13.20
2019-03-31T00:29:03.202Z,17.80
2019-03-31T00:30:03.295Z,14.80
2019-03-31T00:31:03.383Z,14.90
2019-03-31T00:32:03.471Z,15.10
2019-03-31T00:33:03.560Z,15.40
2019-03-31T00:34:03.651Z,16.20
2019-03-31T00:35:03.739Z,15.60
2019-03-31T00:36:03.829Z,14.00
2019-03-31T00:37:03.921Z,14.10
2019-03-31T00:38:04.008Z,15.60
2019-03-31T00:39:04.096Z,14.50
2019-03-31T00:40:04.186Z,15.50
2019-03-31T00:41:04.273Z,16.10
2019-03-31T00:42:04.364Z,15.40
2019-03-31T00:43:04.450Z,14.60
2019-03-31T00:44:04.540Z,14.70
2019-03-31T00:45:04.678Z,15.30
2019-03-31T00:46:04.741Z,13.60
2019-03-31T00:47:04.807Z,14.30
2019-03-31T00:48:04.896Z,14.60
2019-03-31T00:49:04.986Z,14.60
2019-03-31T00:50:05.073Z,14.90
2019-03-31T00:51:05.163Z,15.20
2019-03-31T00:52:05.255Z,13.40
2019-03-31T00:53:05.361Z,14.90
2019-03-31T00:54:05.450Z,12.20
2019-03-31T00:55:05.541Z,13.80
2019-03-31T00:56:05.632Z,15.50
2019-03-31T00:57:05.722Z,13.80
2019-03-31T00:58:05.810Z,14.10
2019-03-31T00:59:05.902Z,13.80
2019-03-31T01:00:05.989Z,14.80
2019-03-31T01:01:06.077Z,15.30
2019-03-31T01:02:06.166Z,15.90
2019-03-31T01:03:06.257Z,15.20
2019-03-31T01:04:06.346Z,16.10
2019-03-31T01:05:06.435Z,14.40
2019-03-31T01:06:06.525Z,14.60
2019-03-31T01:07:06.628Z,16.10
2019-03-31T01:08:06.751Z,14.30
2019-03-31T01:09:06.833Z,14.40
2019-03-31T01:10:06.924Z,15.00
2019-03-31T01:11:07.053Z,15.20
2019-03-31T01:12:07.104Z,13.50
2019-03-31T01:13:15.835Z,16.10
2019-03-31T01:14:07.301Z,13.20
2019-03-31T01:15:07.388Z,12.30
2019-03-31T01:16:07.479Z,14.30
2019-03-31T01:17:07.568Z,13.10
2019-03-31T01:18:07.658Z,14.60
2019-03-31T01:19:07.746Z,15.40
2019-03-31T01:20:07.837Z,14.20
2019-03-31T01:21:07.929Z,14.30
2019-03-31T01:22:08.013Z,14.90
2019-03-31T01:23:08.113Z,14.20
2019-03-31T01:24:08.198Z,17.20
2019-03-31T01:25:08.292Z,13.80
2019-03-31T01:26:08.378Z,14.00
2019-03-31T01:27:08.489Z,16.20
2019-03-31T01:28:08.552Z,14.10
2019-03-31T01:29:08.656Z,13.90
2019-03-31T01:30:08.732Z,15.40
2019-03-31T01:31:08.839Z,15.00
2019-03-31T01:32:08.927Z,14.20
2019-03-31T01:33:09.020Z,14.30
2019-03-31T01:34:09.108Z,13.00
2019-03-31T01:35:09.192Z,15.90
2019-03-31T01:36:09.290Z,15.30
2019-03-31T01:37:09.378Z,13.70
2019-03-31T01:38:09.469Z,14.00
2019-03-31T01:39:09.556Z,16.80
2019-03-31T01:40:09.645Z,16.80
2019-03-31T01:41:09.744Z,14.60
2019-03-31T01:42:09.829Z,15.40
2019-03-31T01:43:09.916Z,15.40
2019-03-31T01:44:10.009Z,15.80
2019-03-31T01:45:10.098Z,15.90
2019-03-31T01:46:10.186Z,14.20
2019-03-31T01:47:10.277Z,15.40
2019-03-31T01:48:10.363Z,17.30
2019-03-31T01:49:10.478Z,16.00
2019-03-31T01:50:10.538Z,16.90
2019-03-31T01:51:10.630Z,17.90
2019-03-31T01:52:10.764Z,18.70
2019-03-31T01:53:10.801Z,18.10
2019-03-31T01:54:10.893Z,19.20
2019-03-31T01:55:10.982Z,17.70
2019-03-31T01:56:11.081Z,17.30
2019-03-31T01:57:11.165Z,14.10
2019-03-31T01:58:11.256Z,16.20
2019-03-31T01:59:11.346Z,15.80
2019-03-31T02:00:11.435Z,16.20
2019-03-31T02:01:11.526Z,16.40
2019-03-31T02:02:11.613Z,17.70
2019-03-31T02:03:11.703Z,16.40
2019-03-31T02:04:11.793Z,17.40
2019-03-31T02:05:11.883Z,15.90
2019-03-31T02:06:11.972Z,14.70
2019-03-31T02:07:12.063Z,16.50
2019-03-31T02:08:12.153Z,14.90
2019-03-31T02:09:12.241Z,17.00
2019-03-31T02:10:12.333Z,15.40
2019-03-31T02:11:12.481Z,15.80
2019-03-31T02:12:12.570Z,15.80
2019-03-31T02:13:12.720Z,15.00
2019-03-31T02:14:12.745Z,15.10
2019-03-31T02:15:12.835Z,15.90
2019-03-31T02:16:12.931Z,14.70
2019-03-31T02:17:13.015Z,17.40
2019-03-31T02:18:13.103Z,15.90
2019-03-31T02:19:13.192Z,15.70
2019-03-31T02:20:13.283Z,16.20
2019-03-31T02:21:13.369Z,14.60
2019-03-31T02:22:13.455Z,15.70
2019-03-31T02:23:13.541Z,15.60
2019-03-31T02:24:13.630Z,16.50
2019-03-31T02:25:13.717Z,14.80
2019-03-31T02:26:13.811Z,14.00
2019-03-31T02:27:13.891Z,16.80
2019-03-31T02:28:13.975Z,15.80
2019-03-31T02:29:14.067Z,15.50
2019-03-31T02:30:14.165Z,15.00
2019-03-31T02:31:14.248Z,16.60
2019-03-31T02:32:23.465Z,17.80
2019-03-31T02:33:14.424Z,14.70
2019-03-31T02:34:14.630Z,16.60
2019-03-31T02:35:14.639Z,13.90
2019-03-31T02:36:14.735Z,14.90
2019-03-31T02:37:14.823Z,16.40
2019-03-31T02:38:14.907Z,17.40
2019-03-31T02:39:14.999Z,16.60
2019-03-31T02:40:15.086Z,19.10
2019-03-31T02:41:15.178Z,17.50
2019-03-31T02:42:15.276Z,18.40
2019-03-31T02:43:15.351Z,17.80
2019-03-31T02:44:15.439Z,17.50
2019-03-31T02:45:15.534Z,16.00
2019-03-31T02:46:15.627Z,15.50
2019-03-31T02:47:15.719Z,18.40
2019-03-31T02:48:15.817Z,16.20
2019-03-31T02:49:15.896Z,16.80
2019-03-31T02:50:15.982Z,15.80
2019-03-31T02:51:16.072Z,17.20
2019-03-31T02:52:16.162Z,15.70
2019-03-31T02:53:16.252Z,16.00
2019-03-31T02:54:16.410Z,15.10
2019-03-31T02:55:16.436Z,18.70
2019-03-31T02:56:16.511Z,16.20
2019-03-31T02:57:16.618Z,14.90
2019-03-31T02:58:16.696Z,18.60
2019-03-31T02:59:16.802Z,18.00
2019-03-31T03:00:16.884Z,15.30
2019-03-31T03:01:17.003Z,16.00
2019-03-31T03:02:17.067Z,16.60
2019-03-31T03:03:17.160Z,16.40
2019-03-31T03:04:17.244Z,18.30
2019-03-31T03:05:20.131Z,16.70
2019-03-31T03:06:17.421Z,16.70
2019-03-31T03:07:17.512Z,17.90
2019-03-31T03:08:17.597Z,15.60
2019-03-31T03:09:17.685Z,18.90
2019-03-31T03:10:17.778Z,17.00
2019-03-31T03:11:17.874Z,16.30
2019-03-31T03:12:17.958Z,17.60
2019-03-31T03:13:18.044Z,15.90
2019-03-31T03:14:18.126Z,17.20
2019-03-31T03:15:18.217Z,15.60
2019-03-31T03:16:18.305Z,15.10
2019-03-31T03:17:18.395Z,16.50
2019-03-31T03:18:18.481Z,16.60
2019-03-31T03:19:18.564Z,17.70
2019-03-31T03:20:18.643Z,16.70
2019-03-31T03:21:18.751Z,16.00
2019-03-31T03:22:18.816Z,17.60
2019-03-31T03:23:18.898Z,13.80
2019-03-31T03:24:18.985Z,16.20
2019-03-31T03:25:19.100Z,15.40
2019-03-31T03:26:19.160Z,17.00
2019-03-31T03:27:19.248Z,14.60
2019-03-31T03:28:19.336Z,15.70
2019-03-31T03:29:19.426Z,17.70
2019-03-31T03:30:19.617Z,21.30
2019-03-31T03:31:19.861Z,16.90
2019-03-31T03:32:19.723Z,16.00
2019-03-31T03:33:20.026Z,15.90
2019-03-31T03:34:19.868Z,15.10
2019-03-31T03:35:19.957Z,16.50
2019-03-31T03:36:20.070Z,16.30
2019-03-31T03:37:20.156Z,17.40
2019-03-31T03:38:20.238Z,16.30
2019-03-31T03:39:20.324Z,16.20
2019-03-31T03:40:21.536Z,15.80
2019-03-31T03:41:20.513Z,14.40
2019-03-31T03:42:20.582Z,19.20
2019-03-31T03:43:20.683Z,15.90
2019-03-31T03:44:20.757Z,16.30
2019-03-31T03:45:20.841Z,14.50
2019-03-31T03:46:20.931Z,16.80
2019-03-31T03:47:21.018Z,17.30
2019-03-31T03:48:21.107Z,14.30
2019-03-31T03:49:21.205Z,15.90
2019-03-31T03:50:21.284Z,15.00
2019-03-31T03:51:21.375Z,14.60
2019-03-31T03:52:21.464Z,15.40
2019-03-31T03:53:21.585Z,15.60
2019-03-31T03:54:21.657Z,15.80
2019-03-31T03:55:21.722Z,17.30
2019-03-31T03:56:21.819Z,15.40
2019-03-31T03:57:21.910Z,16.00
2019-03-31T03:58:21.986Z,15.00
2019-03-31T03:59:22.075Z,15.70
2019-03-31T04:00:22.162Z,16.30
2019-03-31T04:01:22.281Z,15.40
2019-03-31T04:02:22.333Z,15.70
2019-03-31T04:03:30.411Z,17.70
2019-03-31T04:04:22.518Z,15.40
2019-03-31T04:05:22.586Z,18.20
2019-03-31T04:06:22.676Z,15.40
2019-03-31T04:07:22.760Z,16.10
2019-03-31T04:08:22.859Z,16.20
2019-03-31T04:09:22.954Z,19.00
2019-03-31T04:10:23.033Z,16.10
2019-03-31T04:11:23.127Z,18.10
2019-03-31T04:12:23.228Z,16.60
2019-03-31T04:13:23.296Z,17.00
2019-03-31T04:14:23.387Z,17.30
2019-03-31T04:15:23.476Z,17.30
2019-03-31T04:16:23.561Z,17.60
2019-03-31T04:17:23.652Z,15.60
2019-03-31T04:18:23.736Z,17.40
2019-03-31T04:19:23.834Z,18.00
2019-03-31T04:20:23.927Z,15.60
2019-03-31T04:21:24.043Z,17.80
2019-03-31T04:22:24.109Z,17.30
2019-03-31T04:23:24.194Z,17.60
2019-03-31T04:24:24.281Z,15.40
2019-03-31T04:25:24.367Z,16.80
2019-03-31T04:26:25.627Z,16.50
2019-03-31T04:27:24.676Z,16.60
2019-03-31T04:28:24.574Z,17.30
2019-03-31T04:29:24.688Z,16.80
2019-03-31T04:30:24.764Z,18.40
2019-03-31T04:31:24.870Z,17.90
2019-03-31T04:32:24.960Z,16.90
2019-03-31T04:33:25.054Z,16.50
2019-03-31T04:34:25.914Z,17.20
2019-03-31T04:35:25.827Z,20.60
2019-03-31T04:36:25.841Z,17.40
2019-03-31T04:37:25.401Z,19.40
2019-03-31T04:38:25.503Z,18.00
2019-03-31T04:39:25.586Z,18.50
2019-03-31T04:40:25.674Z,17.00
2019-03-31T04:41:25.767Z,16.90
2019-03-31T04:42:25.853Z,16.40
2019-03-31T04:43:25.938Z,18.10
2019-03-31T04:44:26.028Z,18.90
2019-03-31T04:45:26.108Z,16.00
2019-03-31T04:46:26.195Z,16.80
2019-03-31T04:47:26.284Z,18.60
2019-03-31T04:48:26.373Z,18.10
2019-03-31T04:49:26.474Z,18.20
2019-03-31T04:50:26.554Z,18.00
2019-03-31T04:51:26.759Z,16.50
2019-03-31T04:52:26.774Z,18.50
2019-03-31T04:53:26.864Z,17.70
2019-03-31T04:54:27.808Z,17.90
2019-03-31T04:55:27.009Z,18.50
2019-03-31T04:56:27.116Z,19.90
2019-03-31T04:57:27.203Z,19.10
2019-03-31T04:58:27.291Z,18.70
2019-03-31T04:59:27.379Z,19.10
2019-03-31T05:00:27.469Z,16.20
2019-03-31T05:01:27.557Z,17.90
2019-03-31T05:02:27.645Z,16.00
2019-03-31T05:03:27.749Z,19.80
2019-03-31T05:04:27.838Z,18.60
2019-03-31T05:05:27.927Z,18.20
2019-03-31T05:06:28.011Z,22.50
2019-03-31T05:07:28.099Z,19.70
2019-03-31T05:08:28.185Z,18.50
2019-03-31T05:09:28.268Z,18.10
2019-03-31T05:10:28.357Z,19.20
2019-03-31T05:11:28.461Z,18.70
2019-03-31T05:12:28.506Z,20.00
2019-03-31T05:13:28.790Z,19.30
2019-03-31T05:14:28.707Z,16.80
2019-03-31T05:15:28.770Z,19.40
2019-03-31T05:16:28.857Z,18.90
2019-03-31T05:17:28.947Z,18.90
2019-03-31T05:18:29.034Z,17.40
2019-03-31T05:19:29.130Z,16.40
2019-03-31T05:20:29.210Z,16.80
2019-03-31T05:21:29.294Z,18.70
2019-03-31T05:22:29.378Z,17.70
2019-03-31T05:23:29.462Z,17.50
2019-03-31T05:24:29.550Z,19.50
2019-03-31T05:25:29.637Z,16.30
2019-03-31T05:26:29.728Z,20.10
2019-03-31T05:27:29.811Z,16.80
2019-03-31T05:28:29.896Z,21.50
2019-03-31T05:29:29.987Z,17.30
2019-03-31T05:30:30.078Z,19.50
2019-03-31T05:31:30.164Z,21.60
2019-03-31T05:32:30.251Z,17.20
2019-03-31T05:33:30.403Z,18.80
2019-03-31T05:34:30.470Z,18.20
2019-03-31T05:35:30.528Z,20.90
2019-03-31T05:36:30.789Z,19.30
2019-03-31T05:37:30.732Z,17.80
2019-03-31T05:38:30.817Z,17.60
2019-03-31T05:39:30.878Z,17.90
2019-03-31T05:40:31.022Z,19.10
2019-03-31T05:41:31.054Z,17.90
2019-03-31T05:42:31.143Z,18.30
2019-03-31T05:43:31.233Z,19.70
2019-03-31T05:44:31.317Z,17.00
2019-03-31T05:45:31.413Z,18.40
2019-03-31T05:46:31.503Z,16.20
2019-03-31T05:47:31.591Z,19.90
2019-03-31T05:48:31.678Z,17.80
2019-03-31T05:49:31.766Z,17.60
2019-03-31T05:50:31.855Z,17.60
2019-03-31T05:51:31.944Z,18.80
2019-03-31T05:52:32.032Z,20.50
2019-03-31T05:53:32.120Z,18.70
2019-03-31T05:54:32.296Z,16.60
2019-03-31T05:55:32.299Z,19.10
2019-03-31T05:56:32.398Z,18.50
2019-03-31T05:57:32.471Z,20.90
2019-03-31T05:58:32.692Z,18.40
2019-03-31T05:59:32.694Z,18.10
2019-03-31T06:00:32.788Z,18.90
2019-03-31T06:01:32.862Z,19.40
2019-03-31T06:02:33.074Z,18.90
2019-03-31T06:03:33.019Z,20.10
2019-03-31T06:04:33.742Z,17.70
2019-03-31T06:05:33.197Z,19.10
2019-03-31T06:06:36.809Z,23.00
2019-03-31T06:07:33.375Z,17.20
2019-03-31T06:08:33.465Z,19.90
2019-03-31T06:09:33.553Z,17.60
2019-03-31T06:10:33.658Z,19.60
2019-03-31T06:11:33.748Z,19.90
2019-03-31T06:12:33.839Z,20.20
2019-03-31T06:13:33.926Z,18.90
2019-03-31T06:14:34.016Z,19.10
2019-03-31T06:15:34.104Z,20.70
2019-03-31T06:16:34.192Z,20.90
2019-03-31T06:17:34.280Z,17.70
2019-03-31T06:18:34.379Z,19.10
2019-03-31T06:19:34.468Z,19.10
2019-03-31T06:20:34.646Z,18.20
2019-03-31T06:21:34.750Z,19.30
2019-03-31T06:22:34.810Z,19.60
2019-03-31T06:23:34.878Z,19.70
2019-03-31T06:24:35.041Z,21.20
2019-03-31T06:25:35.038Z,18.20
2019-03-31T06:26:35.126Z,21.30
2019-03-31T06:27:35.908Z,21.00
2019-03-31T06:28:35.371Z,18.60
2019-03-31T06:29:35.458Z,20.10
2019-03-31T06:30:35.547Z,17.60
2019-03-31T06:31:35.636Z,18.40
2019-03-31T06:32:35.724Z,19.70
2019-03-31T06:33:35.814Z,16.80
2019-03-31T06:34:46.837Z,16.90
2019-03-31T06:35:35.993Z,17.80
2019-03-31T06:36:36.086Z,16.30
2019-03-31T06:37:36.183Z,16.40
2019-03-31T06:38:36.270Z,15.70
2019-03-31T06:39:36.359Z,16.30
2019-03-31T06:40:36.615Z,16.50
2019-03-31T06:41:36.548Z,16.20
2019-03-31T06:42:36.627Z,18.50
2019-03-31T06:43:36.837Z,17.50
2019-03-31T06:44:38.266Z,16.00
2019-03-31T06:45:36.951Z,15.20
2019-03-31T06:46:37.804Z,16.90
2019-03-31T06:47:37.118Z,14.80
2019-03-31T06:48:37.207Z,14.90
2019-03-31T06:49:37.297Z,15.70
2019-03-31T06:50:37.385Z,15.90
2019-03-31T06:51:37.476Z,16.00
2019-03-31T06:52:37.567Z,18.70
2019-03-31T06:53:37.657Z,17.00
2019-03-31T06:54:37.747Z,16.20
2019-03-31T06:55:37.850Z,17.70
2019-03-31T06:56:37.937Z,17.20
2019-03-31T06:57:38.025Z,17.00
2019-03-31T06:58:38.118Z,17.80
2019-03-31T06:59:38.206Z,18.60
2019-03-31T07:00:38.297Z,16.10
2019-03-31T07:01:38.630Z,19.60
2019-03-31T07:02:38.586Z,18.00
2019-03-31T07:03:38.748Z,17.10
2019-03-31T07:04:38.759Z,17.30
2019-03-31T07:05:38.816Z,15.60
2019-03-31T07:06:38.909Z,17.50
2019-03-31T07:07:39.003Z,17.00
2019-03-31T07:08:39.090Z,18.50
2019-03-31T07:09:39.183Z,16.00
2019-03-31T07:10:39.274Z,15.30
2019-03-31T07:11:39.370Z,18.40
2019-03-31T07:12:39.465Z,19.20
2019-03-31T07:13:39.552Z,17.90
2019-03-31T07:14:39.640Z,17.30
2019-03-31T07:15:39.722Z,16.00
2019-03-31T07:16:41.490Z,15.60
2019-03-31T07:17:39.956Z,14.80
2019-03-31T07:18:40.055Z,16.80
2019-03-31T07:19:40.140Z,16.00
2019-03-31T07:20:40.224Z,16.60
2019-03-31T07:21:40.320Z,16.00
2019-03-31T07:22:40.540Z,17.70
2019-03-31T07:23:40.726Z,18.40
2019-03-31T07:24:40.749Z,17.90
2019-03-31T07:25:40.757Z,16.50
2019-03-31T07:26:40.831Z,17.60
2019-03-31T07:27:40.942Z,15.50
2019-03-31T07:28:41.032Z,17.20
2019-03-31T07:29:41.124Z,16.30
2019-03-31T07:30:41.213Z,16.70
2019-03-31T07:31:41.302Z,15.40
2019-03-31T07:32:41.409Z,18.00
2019-03-31T07:33:41.500Z,15.90
2019-03-31T07:34:41.591Z,14.90
2019-03-31T07:35:41.677Z,14.10
2019-03-31T07:36:41.777Z,16.00
2019-03-31T07:37:47.499Z,15.10
2019-03-31T07:38:41.981Z,16.50
2019-03-31T07:39:45.752Z,15.40
2019-03-31T07:40:42.334Z,14.70
2019-03-31T07:41:42.278Z,14.30
2019-03-31T07:42:42.328Z,18.30
2019-03-31T07:43:42.437Z,15.50
2019-03-31T07:44:42.667Z,14.80
2019-03-31T07:45:42.756Z,15.80
2019-03-31T07:46:42.804Z,16.40
2019-03-31T07:47:42.886Z,16.20
2019-03-31T07:48:43.039Z,14.20
2019-03-31T07:49:43.066Z,16.00
2019-03-31T07:50:43.161Z,16.20
2019-03-31T07:51:43.234Z,16.20
2019-03-31T07:52:43.328Z,14.80
2019-03-31T07:53:43.425Z,15.60
2019-03-31T07:54:43.508Z,15.70
2019-03-31T07:55:43.602Z,14.90
2019-03-31T07:56:43.697Z,15.70
2019-03-31T07:57:43.814Z,16.80
2019-03-31T07:58:43.950Z,16.40
2019-03-31T07:59:44.036Z,15.60
2019-03-31T08:00:44.126Z,17.90
2019-03-31T08:01:44.216Z,16.70
2019-03-31T08:02:44.310Z,15.30
2019-03-31T08:03:44.408Z,17.20
2019-03-31T08:04:44.730Z,15.40
2019-03-31T08:05:44.657Z,16.10
2019-03-31T08:06:44.854Z,14.70
2019-03-31T08:07:44.917Z,14.90
2019-03-31T08:08:44.882Z,16.50
2019-03-31T08:09:44.982Z,14.50
2019-03-31T08:10:45.071Z,14.40
2019-03-31T08:11:45.151Z,16.60
2019-03-31T08:12:45.249Z,15.10
2019-03-31T08:13:45.340Z,20.30
2019-03-31T08:14:45.433Z,17.40
2019-03-31T08:15:45.529Z,14.70
2019-03-31T08:16:45.624Z,17.40
2019-03-31T08:17:45.712Z,14.00
2019-03-31T08:18:45.806Z,17.10
2019-03-31T08:19:45.897Z,16.50
2019-03-31T08:20:45.990Z,16.20
2019-03-31T08:21:46.088Z,16.00
2019-03-31T08:22:46.181Z,15.60
2019-03-31T08:23:46.272Z,16.40
2019-03-31T08:24:46.386Z,17.30
2019-03-31T08:25:46.499Z,18.00
2019-03-31T08:26:46.709Z,19.60
2019-03-31T08:27:46.898Z,18.40
2019-03-31T08:28:46.834Z,25.70
2019-03-31T08:29:51.963Z,25.10
2019-03-31T08:30:46.966Z,33.00
2019-03-31T08:31:47.059Z,29.90
2019-03-31T08:32:47.152Z,30.70
2019-03-31T08:33:47.245Z,33.20
2019-03-31T08:34:47.337Z,36.30
2019-03-31T08:35:47.970Z,34.60
2019-03-31T08:36:47.528Z,37.30
2019-03-31T08:37:47.622Z,32.00
2019-03-31T08:38:47.712Z,32.60
2019-03-31T08:39:47.802Z,31.00
2019-03-31T08:40:47.898Z,30.80
2019-03-31T08:41:47.990Z,31.80
2019-03-31T08:42:48.083Z,32.60
2019-03-31T08:43:48.177Z,31.70
2019-03-31T08:44:48.269Z,32.60
2019-03-31T08:45:48.358Z,30.00
2019-03-31T08:46:48.494Z,31.60
2019-03-31T08:47:48.832Z,31.20
2019-03-31T08:48:48.702Z,29.70
2019-03-31T08:49:48.789Z,30.70
2019-03-31T08:50:48.864Z,30.70
2019-03-31T08:51:48.953Z,31.00
2019-03-31T08:52:49.047Z,29.50
2019-03-31T08:53:49.147Z,29.60
2019-03-31T08:54:49.240Z,31.70
2019-03-31T08:55:49.325Z,28.80
2019-03-31T08:56:49.421Z,31.00
2019-03-31T08:57:49.566Z,29.40
2019-03-31T08:58:49.605Z,33.60
2019-03-31T08:59:49.699Z,31.50
2019-03-31T09:00:49.793Z,30.50
2019-03-31T09:01:49.885Z,32.60
2019-03-31T09:02:49.977Z,32.00
2019-03-31T09:03:50.073Z,31.20
2019-03-31T09:04:50.172Z,32.70
2019-03-31T09:06:01.010Z,33.20
2019-03-31T09:06:50.442Z,30.00
2019-03-31T09:07:50.471Z,32.10
2019-03-31T09:08:50.517Z,29.40
2019-03-31T09:09:50.611Z,32.20
2019-03-31T09:10:50.728Z,34.10
2019-03-31T09:11:50.821Z,35.50
2019-03-31T09:12:50.920Z,42.50
2019-03-31T09:13:51.079Z,38.60
2019-03-31T09:14:51.110Z,36.60
2019-03-31T09:15:51.220Z,40.00
2019-03-31T09:16:51.299Z,40.90
2019-03-31T09:17:54.037Z,41.60
2019-03-31T09:18:51.488Z,40.40
2019-03-31T09:19:51.590Z,40.70
2019-03-31T09:20:51.672Z,40.60
2019-03-31T09:21:51.773Z,41.10
2019-03-31T09:22:51.865Z,39.60
2019-03-31T09:23:51.957Z,40.30
2019-03-31T09:24:52.052Z,41.20
2019-03-31T09:25:52.147Z,39.30
2019-03-31T09:26:52.240Z,38.00
2019-03-31T09:27:52.334Z,40.00
2019-03-31T09:28:52.663Z,42.70
2019-03-31T09:29:52.614Z,39.80
2019-03-31T09:30:52.799Z,41.20
2019-03-31T09:31:52.855Z,41.40
2019-03-31T09:32:52.940Z,41.20
2019-03-31T09:33:53.035Z,43.80
2019-03-31T09:34:53.907Z,43.40
2019-03-31T09:35:53.238Z,43.30
2019-03-31T09:36:53.325Z,45.10
2019-03-31T09:37:53.447Z,43.50
2019-03-31T09:38:53.529Z,44.10
2019-03-31T09:39:53.622Z,44.10
2019-03-31T09:40:53.716Z,43.30
2019-03-31T09:41:53.813Z,44.10
2019-03-31T09:42:53.908Z,45.40
2019-03-31T09:43:54.003Z,41.00
2019-03-31T09:44:54.097Z,42.20
2019-03-31T09:45:54.191Z,43.80
2019-03-31T09:46:54.289Z,43.80
2019-03-31T09:47:54.468Z,46.30
2019-03-31T09:48:54.559Z,46.20
2019-03-31T09:49:54.721Z,43.90
2019-03-31T09:50:56.586Z,48.40
2019-03-31T09:51:54.795Z,45.00
2019-03-31T09:52:54.868Z,47.80
2019-03-31T09:53:54.962Z,46.20
2019-03-31T09:54:55.058Z,44.30
2019-03-31T09:55:55.156Z,48.50
2019-03-31T09:56:55.247Z,47.90
2019-03-31T09:57:55.343Z,48.00
2019-03-31T09:58:55.436Z,47.50
2019-03-31T09:59:55.533Z,48.00
2019-03-31T10:00:55.627Z,48.70
2019-03-31T10:01:55.721Z,48.70
2019-03-31T10:02:55.814Z,50.40
2019-03-31T10:03:55.909Z,48.20
2019-03-31T10:04:56.006Z,46.30
2019-03-31T10:06:09.413Z,50.90
2019-03-31T10:06:56.197Z,49.80
2019-03-31T10:07:56.298Z,61.40
2019-03-31T10:08:56.608Z,72.20
2019-03-31T10:09:56.634Z,60.30
2019-03-31T10:10:56.650Z,54.50
2019-03-31T10:11:56.814Z,52.80
2019-03-31T10:12:56.716Z,51.10
2019-03-31T10:13:56.869Z,52.60
2019-03-31T10:14:56.893Z,49.20
2019-03-31T10:16:04.190Z,56.10
2019-03-31T10:16:57.036Z,59.50
2019-03-31T10:17:57.134Z,59.50
2019-03-31T10:18:57.238Z,56.70
2019-03-31T10:19:57.324Z,58.20
2019-03-31T10:20:57.419Z,74.50
2019-03-31T10:21:57.515Z,68.40
2019-03-31T10:22:57.637Z,62.20
2019-03-31T10:23:57.745Z,57.60
2019-03-31T10:24:57.802Z,59.60
2019-03-31T10:25:57.901Z,58.90
2019-03-31T10:26:57.993Z,58.90
2019-03-31T10:27:58.093Z,56.10
2019-03-31T10:28:58.219Z,64.20
2019-03-31T10:29:58.290Z,56.30
2019-03-31T10:30:58.403Z,57.00
2019-03-31T10:31:58.490Z,59.50
2019-03-31T10:32:58.585Z,62.10
2019-03-31T10:33:58.681Z,64.50
2019-03-31T10:34:58.779Z,61.50
2019-03-31T10:35:58.875Z,66.30
2019-03-31T10:36:58.970Z,61.80
2019-03-31T10:37:59.068Z,58.00
2019-03-31T10:38:59.166Z,60.00
2019-03-31T10:39:59.259Z,61.30
2019-03-31T10:40:59.355Z,61.80
2019-03-31T10:41:59.451Z,59.00
2019-03-31T10:42:59.547Z,60.40
2019-03-31T10:43:59.645Z,57.30
2019-03-31T10:44:59.737Z,63.30
2019-03-31T10:45:59.844Z,63.40
2019-03-31T10:46:59.930Z,61.30
2019-03-31T10:48:00.173Z,61.90
2019-03-31T10:49:00.153Z,59.00
2019-03-31T10:50:00.382Z,62.60
2019-03-31T10:51:00.401Z,63.10
2019-03-31T10:52:00.450Z,63.70
2019-03-31T10:53:01.385Z,63.90
2019-03-31T10:54:00.727Z,67.20
2019-03-31T10:55:00.820Z,65.90
2019-03-31T10:56:00.916Z,64.00
2019-03-31T10:57:01.452Z,62.40
2019-03-31T10:58:01.119Z,62.50
2019-03-31T10:59:01.327Z,62.20
2019-03-31T11:00:01.295Z,58.20
2019-03-31T11:01:01.420Z,61.90
2019-03-31T11:02:01.773Z,59.20
2019-03-31T11:03:01.597Z,63.70
2019-03-31T11:04:01.696Z,59.10
2019-03-31T11:05:01.801Z,62.20
2019-03-31T11:06:01.882Z,62.20
2019-03-31T11:07:03.648Z,62.50
2019-03-31T11:08:02.084Z,61.70
2019-03-31T11:09:02.239Z,64.20
2019-03-31T11:10:02.228Z,63.40
2019-03-31T11:11:02.338Z,63.90
2019-03-31T11:12:02.458Z,60.70
2019-03-31T11:13:02.569Z,62.50
2019-03-31T11:14:02.662Z,61.50
2019-03-31T11:15:02.758Z,65.50
2019-03-31T11:16:03.741Z,60.10
2019-03-31T11:17:02.953Z,60.00
2019-03-31T11:18:03.654Z,61.20
2019-03-31T11:19:03.542Z,60.60
2019-03-31T11:20:03.265Z,62.10
2019-03-31T11:21:03.353Z,63.60
2019-03-31T11:22:03.777Z,61.40
2019-03-31T11:23:03.606Z,63.90
2019-03-31T11:24:03.720Z,60.80
2019-03-31T11:25:03.860Z,60.30
2019-03-31T11:26:03.928Z,61.90
2019-03-31T11:27:04.025Z,60.30
2019-03-31T11:28:04.119Z,62.70
2019-03-31T11:29:04.306Z,62.00
2019-03-31T11:31:46.818Z,62.90
2019-03-31T11:32:46.914Z,63.20
2019-03-31T11:33:47.011Z,62.50
2019-03-31T11:34:47.486Z,65.10
2019-03-31T11:35:47.205Z,62.80
2019-03-31T11:36:47.303Z,65.80
2019-03-31T11:37:47.398Z,64.30
2019-03-31T11:38:47.491Z,61.30
2019-03-31T11:39:47.585Z,58.40
2019-03-31T11:40:47.679Z,62.70
2019-03-31T11:41:47.790Z,60.20
2019-03-31T11:42:47.874Z,62.20
2019-03-31T11:43:47.976Z,62.80
2019-03-31T11:44:48.103Z,62.20
2019-03-31T11:45:48.179Z,61.40
2019-03-31T11:46:48.295Z,62.40
2019-03-31T11:47:48.390Z,62.60
2019-03-31T11:48:48.489Z,62.10
2019-03-31T11:49:48.591Z,59.70
2019-03-31T11:50:48.676Z,61.30
2019-03-31T11:51:48.771Z,61.40
2019-03-31T11:52:49.279Z,58.20
2019-03-31T11:53:48.963Z,63.00
2019-03-31T11:54:49.059Z,61.40
2019-03-31T11:55:49.158Z,62.00
2019-03-31T11:56:49.252Z,62.20
2019-03-31T11:57:49.345Z,59.50
2019-03-31T11:58:49.499Z,61.30
2019-03-31T11:59:49.917Z,63.10
2019-03-31T12:00:49.652Z,61.40
2019-03-31T12:01:49.733Z,63.40
2019-03-31T12:02:49.855Z,63.10
2019-03-31T12:03:49.916Z,58.60
2019-03-31T12:04:50.010Z,62.40
2019-03-31T12:05:50.181Z,60.30
2019-03-31T12:06:50.380Z,64.70
2019-03-31T12:07:50.534Z,57.80
2019-03-31T12:08:50.560Z,61.00
2019-03-31T12:09:50.651Z,60.40
2019-03-31T12:10:50.745Z,61.70
2019-03-31T12:11:51.065Z,61.70
2019-03-31T12:12:50.960Z,59.90
2019-03-31T12:13:51.266Z,62.20
2019-03-31T12:15:00.395Z,60.90
2019-03-31T12:15:51.316Z,59.80
2019-03-31T12:16:51.411Z,60.10
2019-03-31T12:17:51.509Z,64.40
2019-03-31T12:18:51.609Z,62.60
2019-03-31T12:19:51.720Z,60.30
2019-03-31T12:20:51.898Z,58.80
2019-03-31T12:23:35.236Z,57.60
2019-03-31T12:24:34.964Z,57.80
2019-03-31T12:25:35.505Z,60.10
2019-03-31T12:26:35.173Z,59.80
2019-03-31T12:27:35.269Z,55.40
2019-03-31T12:28:35.365Z,59.60
2019-03-31T12:29:35.461Z,55.30
2019-03-31T12:30:35.556Z,58.00
2019-03-31T12:31:35.652Z,56.00
2019-03-31T12:32:38.346Z,55.10
2019-03-31T12:33:35.846Z,54.40
2019-03-31T12:34:35.933Z,54.30
2019-03-31T12:35:36.049Z,53.90
2019-03-31T12:36:36.223Z,56.10
2019-03-31T12:37:42.805Z,53.40
2019-03-31T12:38:36.307Z,55.00
2019-03-31T12:39:36.396Z,56.20
2019-03-31T12:40:36.500Z,55.30
2019-03-31T12:41:36.604Z,53.20
2019-03-31T12:42:36.680Z,52.90
2019-03-31T12:43:36.774Z,52.50
2019-03-31T12:44:36.871Z,51.20
2019-03-31T12:45:36.968Z,53.40
2019-03-31T12:46:37.066Z,52.40
2019-03-31T12:47:37.169Z,52.20
2019-03-31T12:48:37.271Z,51.40
2019-03-31T12:49:37.381Z,51.80
2019-03-31T12:50:37.475Z,50.40
2019-03-31T12:51:37.564Z,52.20
2019-03-31T12:52:46.761Z,50.90
2019-03-31T12:53:37.779Z,49.60
2019-03-31T12:54:37.908Z,54.60
2019-03-31T12:55:37.993Z,49.30
2019-03-31T12:56:38.084Z,47.70